KOVE

Oroville Municipal Airport

Oroville, California, USA
METAR KOVE 191653Z AUTO 00000KT 9SM CLR 27/10 A2994 RMK AO2 SLP140 T02670100 $
Observed Flight Rules
Aug-19 @ 16:53 UTC (20 minutes ago) Visual Flight Rules
Visibility Clouds
9 miles
  • Clear skies
Temperatures Readings
Current 27°C / 81°F
Dewpoint 10°C / 50°F
Humidity 34%
Altimeter 29.94" Hg
Pressure 1014 hPa
Elevation 58
METAR KOVE 191653Z AUTO 00000KT 9SM CLR 27/10 A2994 RMK AO2 SLP140 T02670100 $
Observed Flight Rules
Aug-19 @ 16:53 UTC
(20 minutes ago)
VFR
Clouds
  • Clear skies
Temperature Dewpoint
27°C / 81°F 10°C / 50°F
Humidity Altimeter Pressure
34% 29.94" Hg 1014 hPa